Time;durP1;ratioP1;P1;durP2;ratioP2;P2;SDS_P1;SDS_P2;PMS_P1;PMS_P2;Temp;Humidity;BMP_temperature;BMP_pressure;BME280_temperature;BME280_humidity;BME280_pressure;Samples;Min_cycle;Max_cycle;Signal;HPM_P1;HPM_P2
2021/11/28 00:01:08;;;;;;;;;2.00;1.00;;;;;6.51;100.00;99453.53;5016930;28;45412;-75
2021/11/28 00:03:34;;;;;;;;;3.00;2.00;;;;;6.48;100.00;99446.59;5017368;28;45437;-75
2021/11/28 00:06:06;;;;;;;;;6.00;2.50;;;;;6.56;100.00;99458.84;5016653;28;45360;-75
2021/11/28 00:16:28;;;;;;;;;2.50;2.50;;;;;6.53;100.00;99463.91;5016576;28;45325;-74
2021/11/28 00:18:54;;;;;;;;;3.25;3.00;;;;;6.43;100.00;99452.34;5016709;28;45429;-74
2021/11/28 00:21:20;;;;;;;;;2.00;2.00;;;;;6.50;100.00;99462.94;5016947;28;45393;-74
2021/11/28 00:23:45;;;;;;;;;2.00;2.00;;;;;6.52;100.00;99468.16;4999168;28;45474;-75
2021/11/28 00:26:12;;;;;;;;;6.50;2.25;;;;;6.54;100.00;99463.94;5014887;28;48156;-74
2021/11/28 00:28:38;;;;;;;;;3.50;2.50;;;;;6.46;100.00;99447.34;5016944;28;45330;-74
2021/11/28 00:31:05;;;;;;;;;2.00;2.00;;;;;6.56;100.00;99469.13;5016447;28;45191;-75
2021/11/28 00:33:31;;;;;;;;;3.50;2.00;;;;;6.49;100.00;99455.16;5017210;28;45460;-75
2021/11/28 00:35:59;;;;;;;;;2.50;2.50;;;;;6.54;100.00;99469.09;5015059;28;45360;-75
2021/11/28 00:38:36;;;;;;;;;0.00;0.00;;;;;6.42;100.00;99453.19;5016627;28;45478;-76
2021/11/28 00:41:02;;;;;;;;;2.25;1.00;;;;;6.40;100.00;99440.28;4998710;28;45455;-75
2021/11/28 00:43:27;;;;;;;;;0.00;0.00;;;;;6.45;100.00;99443.88;5017089;28;45558;-76
2021/11/28 00:45:53;;;;;;;;;2.00;2.00;;;;;6.39;100.00;99435.03;5015884;28;45935;-75
2021/11/28 00:48:19;;;;;;;;;1.25;1.00;;;;;6.50;100.00;99457.81;5016406;28;45340;-75
2021/11/28 00:50:46;;;;;;;;;2.75;1.75;;;;;6.52;100.00;99462.13;5016328;28;45214;-76
2021/11/28 00:53:16;;;;;;;;;4.00;2.50;;;;;6.52;100.00;99455.28;5016686;28;45384;-76
2021/11/28 00:55:42;;;;;;;;;2.75;2.00;;;;;6.48;100.00;99454.28;5016550;28;46213;-75
2021/11/28 00:58:09;;;;;;;;;1.00;1.00;;;;;6.49;100.00;99460.31;5017027;28;45309;-74
2021/11/28 01:00:34;;;;;;;;;1.00;1.00;;;;;6.50;100.00;99480.06;5019079;28;45307;-75
2021/11/28 01:03:00;;;;;;;;;2.00;2.00;;;;;6.40;100.00;99465.09;5017101;28;45390;-75
2021/11/28 01:05:26;;;;;;;;;4.75;2.25;;;;;6.45;100.00;99464.44;4998071;28;45439;-75
2021/11/28 01:07:52;;;;;;;;;2.25;1.75;;;;;6.42;100.00;99461.78;5015199;28;45260;-74
2021/11/28 01:10:17;;;;;;;;;2.00;2.00;;;;;6.49;100.00;99489.47;5016293;28;45350;-75
2021/11/28 01:12:44;;;;;;;;;5.00;2.00;;;;;6.50;100.00;99491.25;5016130;28;45385;-74
2021/11/28 01:15:11;;;;;;;;;3.50;2.00;;;;;6.50;100.00;99491.25;5016313;28;45410;-74
2021/11/28 01:17:38;;;;;;;;;1.00;1.00;;;;;6.47;100.00;99485.09;5016026;28;45760;-75
2021/11/28 01:20:05;;;;;;;;;2.00;2.00;;;;;6.49;100.00;99484.34;5015748;28;45290;-75
2021/11/28 01:22:31;;;;;;;;;2.00;2.00;;;;;6.41;100.00;99480.59;5016219;28;45555;-73
2021/11/28 01:24:57;;;;;;;;;2.50;2.00;;;;;6.49;100.00;99497.19;5015692;28;45554;-76
2021/11/28 01:27:23;;;;;;;;;1.75;1.50;;;;;6.40;100.00;99488.22;5015880;28;45650;-77
2021/11/28 01:29:48;;;;;;;;;2.00;0.75;;;;;6.46;100.00;99493.63;5015844;28;45229;-76
2021/11/28 01:32:15;;;;;;;;;5.50;2.75;;;;;6.39;100.00;99483.88;5016375;28;45523;-77
2021/11/28 01:34:41;;;;;;;;;1.25;1.25;;;;;6.55;100.00;99519.69;5015982;28;45359;-77
2021/11/28 01:37:07;;;;;;;;;1.25;1.25;;;;;6.50;100.00;99506.66;4997887;28;45388;-77
2021/11/28 01:39:33;;;;;;;;;1.50;1.00;;;;;6.54;100.00;99523.09;5018117;28;45543;-77
2021/11/28 01:41:59;;;;;;;;;1.75;1.75;;;;;6.56;100.00;99515.41;5016681;28;45393;-75
2021/11/28 01:44:25;;;;;;;;;3.00;1.00;;;;;6.51;100.00;99522.94;5015371;28;45581;-78
2021/11/28 01:47:01;;;;;;;;;2.50;1.50;;;;;6.48;100.00;99517.69;5017435;28;45349;-77
2021/11/28 01:49:27;;;;;;;;;1.00;1.00;;;;;6.47;100.00;99519.38;5021092;28;45186;-74
2021/11/28 01:51:53;;;;;;;;;1.00;1.00;;;;;6.35;100.00;99508.59;5003766;28;45269;-75
2021/11/28 01:54:19;;;;;;;;;3.00;1.00;;;;;6.40;100.00;99522.53;5019574;28;46128;-73
2021/11/28 01:56:48;;;;;;;;;2.00;1.00;;;;;6.42;100.00;99515.78;5001053;28;45399;-74
2021/11/28 01:59:16;;;;;;;;;1.00;1.00;;;;;6.38;100.00;99515.56;5019092;28;45334;-74
2021/11/28 02:01:43;;;;;;;;;1.00;1.00;;;;;6.49;100.00;99535.75;5019510;28;45504;-74
2021/11/28 02:04:14;;;;;;;;;2.00;0.25;;;;;6.50;100.00;99544.34;5019170;28;45310;-74
2021/11/28 02:06:41;;;;;;;;;3.00;1.00;;;;;6.48;100.00;99545.97;5018604;28;45931;-74
2021/11/28 02:09:15;;;;;;;;;0.00;0.00;;;;;6.44;100.00;99546.66;5019176;28;45177;-75
2021/11/28 02:11:43;;;;;;;;;2.75;2.00;;;;;6.41;100.00;99560.28;5002537;28;45346;-75
2021/11/28 02:14:09;;;;;;;;;2.00;1.00;;;;;6.30;100.00;99541.84;5019907;28;45775;-75
2021/11/28 02:16:35;;;;;;;;;2.00;1.25;;;;;6.17;100.00;99514.75;5001360;28;45828;-76
2021/11/28 02:19:02;;;;;;;;;1.00;1.00;;;;;5.97;100.00;99477.91;5019892;28;45403;-75
2021/11/28 02:21:33;;;;;;;;;0.50;0.50;;;;;6.22;100.00;99530.38;5020173;28;45411;-75
2021/11/28 02:23:59;;;;;;;;;3.25;2.00;;;;;6.26;100.00;99528.78;5018755;28;45562;-75
2021/11/28 02:26:27;;;;;;;;;3.75;1.00;;;;;6.19;100.00;99515.69;5018504;28;45809;-74
2021/11/28 02:28:53;;;;;;;;;3.00;0.75;;;;;6.40;100.00;99543.09;5018289;28;45395;-74
2021/11/28 02:31:19;;;;;;;;;2.00;1.00;;;;;6.46;100.00;99550.19;5018831;28;45426;-75
2021/11/28 02:33:45;;;;;;;;;2.00;2.00;;;;;6.44;100.00;99557.81;5018357;28;46238;-74
2021/11/28 02:36:11;;;;;;;;;1.00;1.00;;;;;6.38;100.00;99560.16;5018844;28;45252;-74
2021/11/28 02:38:36;;;;;;;;;2.25;0.50;;;;;6.41;100.00;99564.53;5018426;28;45197;-75
2021/11/28 02:41:03;;;;;;;;;1.00;1.00;;;;;6.40;100.00;99562.78;5018518;28;45221;-75
2021/11/28 02:43:32;;;;;;;;;3.00;1.00;;;;;6.41;100.00;99564.53;5018246;28;46185;-75
2021/11/28 02:46:03;;;;;;;;;0.75;0.00;;;;;6.35;100.00;99560.91;5018267;28;45485;-75
2021/11/28 02:48:29;;;;;;;;;1.25;1.00;;;;;6.32;100.00;99559.88;5000247;28;45389;-75
2021/11/28 02:50:57;;;;;;;;;0.25;0.25;;;;;6.31;100.00;99553.88;5018229;28;45589;-75
2021/11/28 02:53:23;;;;;;;;;1.00;1.00;;;;;6.37;100.00;99565.25;5017910;28;46496;-75
2021/11/28 02:55:54;;;;;;;;;1.00;1.00;;;;;6.34;100.00;99564.28;5018259;28;45307;-76
2021/11/28 02:58:21;;;;;;;;;1.00;1.00;;;;;6.30;100.00;99564.09;5021362;28;45431;-76
2021/11/28 03:00:59;;;;;;;;;2.00;1.00;;;;;6.29;100.00;99555.50;5019351;28;45590;-75
2021/11/28 03:03:25;;;;;;;;;0.00;0.00;;;;;6.32;100.00;99562.44;5000065;28;45558;-75
2021/11/28 03:05:50;;;;;;;;;4.00;3.25;;;;;6.37;100.00;99570.38;5017663;28;45421;-75
2021/11/28 03:08:17;;;;;;;;;11.00;9.00;;;;;6.33;100.00;99569.34;5017855;28;45306;-75
2021/11/28 03:10:46;;;;;;;;;21.25;16.25;;;;;6.33;100.00;99564.22;5017970;28;45344;-75
2021/11/28 03:13:32;;;;;;;;;9.75;8.75;;;;;6.35;100.00;99566.06;5018062;28;46220;-75
2021/11/28 03:16:10;;;;;;;;;10.25;5.50;;;;;6.38;100.00;99573.00;5017413;28;45931;-76
2021/11/28 03:18:37;;;;;;;;;7.25;4.00;;;;;6.40;100.00;99566.25;5017958;28;45378;-75
2021/11/28 03:21:11;;;;;;;;;1.75;1.75;;;;;6.36;100.00;99559.19;4999889;28;45322;-75
2021/11/28 03:23:38;;;;;;;;;0.00;0.00;;;;;6.28;100.00;99558.88;5017742;28;45989;-75
2021/11/28 03:26:15;;;;;;;;;2.00;0.00;;;;;6.37;100.00;99578.97;5017509;28;45320;-75
2021/11/28 03:28:45;;;;;;;;;1.00;1.00;;;;;6.34;100.00;99587.44;5018074;28;45383;-77
2021/11/28 03:31:11;;;;;;;;;1.50;0.00;;;;;6.26;100.00;99582.78;5017690;28;45376;-77
2021/11/28 03:33:38;;;;;;;;;1.25;1.00;;;;;6.28;100.00;99592.28;5015873;28;45907;-75
2021/11/28 03:36:06;;;;;;;;;1.75;1.00;;;;;6.25;100.00;99593.84;5018203;28;45327;-75
2021/11/28 03:38:32;;;;;;;;;1.00;1.00;;;;;6.21;100.00;99590.28;5019020;28;45436;-76
2021/11/28 03:40:58;;;;;;;;;0.00;0.00;;;;;6.17;100.00;99588.38;5017714;28;45276;-76
2021/11/28 03:43:23;;;;;;;;;1.00;1.00;;;;;6.19;100.00;99595.38;5017429;28;45315;-75
2021/11/28 03:45:49;;;;;;;;;0.50;0.00;;;;;6.21;100.00;99598.00;5017125;28;45309;-76
2021/11/28 03:48:15;;;;;;;;;0.00;0.00;;;;;6.22;100.00;99599.75;5016082;28;45455;-76
2021/11/28 03:50:41;;;;;;;;;2.50;0.00;;;;;6.21;100.00;99599.72;5018019;28;45352;-76
2021/11/28 03:53:06;;;;;;;;;2.00;1.00;;;;;6.22;100.00;99607.47;4999072;28;46785;-76
2021/11/28 03:55:32;;;;;;;;;0.00;0.00;;;;;6.23;100.00;99598.06;5017350;28;45213;-76
2021/11/28 03:57:58;;;;;;;;;1.00;1.00;;;;;6.24;100.00;99604.94;5017178;28;45395;-76
2021/11/28 04:00:24;;;;;;;;;0.50;0.50;;;;;6.24;100.00;99595.56;5017637;28;45340;-76
2021/11/28 04:02:49;;;;;;;;;0.50;0.50;;;;;6.29;100.00;99608.63;5017452;28;45584;-75
2021/11/28 04:05:15;;;;;;;;;0.50;0.00;;;;;6.30;100.00;99608.66;5034183;28;44724;-76
2021/11/28 04:07:41;;;;;;;;;2.00;0.00;;;;;6.26;100.00;99601.66;5025987;28;45490;-76
2021/11/28 04:10:08;;;;;;;;;2.00;0.75;;;;;6.29;100.00;99609.47;5017232;28;45426;-75
2021/11/28 04:12:34;;;;;;;;;1.00;1.00;;;;;6.24;100.00;99600.72;5017889;28;46082;-75
2021/11/28 04:15:00;;;;;;;;;1.75;0.50;;;;;6.27;100.00;99607.66;5019940;28;45183;-75
2021/11/28 04:17:27;;;;;;;;;0.00;0.00;;;;;6.20;100.00;99593.66;5017067;28;45226;-75
2021/11/28 04:19:53;;;;;;;;;0.00;0.00;;;;;6.22;100.00;99610.03;5017215;28;45821;-74
2021/11/28 04:22:19;;;;;;;;;0.00;0.00;;;;;6.19;100.00;99607.31;5016694;28;45391;-75
2021/11/28 04:24:46;;;;;;;;;1.00;1.00;;;;;6.11;100.00;99604.41;5016499;28;45875;-75
2021/11/28 04:27:11;;;;;;;;;1.00;1.00;;;;;6.16;100.00;99608.09;5017051;28;45442;-75
2021/11/28 04:29:37;;;;;;;;;0.50;0.50;;;;;6.08;100.00;99591.47;5016834;28;45641;-74
2021/11/28 04:32:03;;;;;;;;;0.25;0.25;;;;;6.14;100.00;99603.69;4998458;28;46204;-77
2021/11/28 04:34:29;;;;;;;;;1.00;0.00;;;;;6.14;100.00;99609.69;5016585;28;45332;-77
2021/11/28 04:36:54;;;;;;;;;0.00;0.00;;;;;6.06;100.00;99598.22;5016548;28;45414;-76
2021/11/28 04:39:20;;;;;;;;;1.00;1.00;;;;;6.15;100.00;99624.31;5017006;28;45542;-76
2021/11/28 04:41:47;;;;;;;;;1.25;0.00;;;;;6.23;100.00;99636.59;5016239;28;46090;-76
2021/11/28 04:44:14;;;;;;;;;2.25;1.00;;;;;6.20;100.00;99606.53;5016575;28;45808;-76
2021/11/28 04:46:40;;;;;;;;;0.00;0.00;;;;;6.24;100.00;99628.09;5017054;28;45351;-76
2021/11/28 04:49:07;;;;;;;;;1.00;1.00;;;;;6.21;100.00;99622.84;5016521;28;45633;-76
2021/11/28 04:51:33;;;;;;;;;0.50;0.00;;;;;6.17;100.00;99622.69;4998528;28;47679;-76
2021/11/28 04:53:59;;;;;;;;;1.25;0.00;;;;;6.17;100.00;99620.13;5016038;28;45460;-76
2021/11/28 04:56:26;;;;;;;;;3.00;0.00;;;;;6.16;100.00;99622.59;5016763;28;45170;-77
2021/11/28 04:58:52;;;;;;;;;3.00;1.00;;;;;6.19;100.00;99636.50;5015822;28;45285;-76
2021/11/28 05:01:18;;;;;;;;;0.00;0.00;;;;;6.18;100.00;99634.72;5016236;28;46322;-76
2021/11/28 05:03:44;;;;;;;;;0.00;0.00;;;;;6.15;100.00;99634.59;5016258;28;45769;-76
2021/11/28 05:06:10;;;;;;;;;0.50;0.00;;;;;6.19;100.00;99638.16;5016835;28;45483;-76
2021/11/28 05:08:35;;;;;;;;;0.75;0.75;;;;;6.16;100.00;99625.19;5016485;28;45611;-76
2021/11/28 05:11:01;;;;;;;;;2.00;1.00;;;;;6.26;100.00;99639.31;5015942;28;45360;-77
2021/11/28 05:13:26;;;;;;;;;1.00;1.00;;;;;6.25;100.00;99634.97;5015881;28;45456;-76
2021/11/28 05:15:52;;;;;;;;;1.00;1.00;;;;;6.28;100.00;99638.56;5016071;28;45376;-76
2021/11/28 05:18:18;;;;;;;;;1.00;1.00;;;;;6.26;100.00;99639.31;5016509;28;45450;-76
2021/11/28 05:20:46;;;;;;;;;2.00;1.00;;;;;6.21;100.00;99640.81;5015066;28;45844;-77
2021/11/28 05:23:12;;;;;;;;;1.00;0.00;;;;;6.19;100.00;99636.50;5016378;28;45341;-76
2021/11/28 05:25:38;;;;;;;;;0.75;0.75;;;;;6.22;100.00;99646.03;5016693;28;45304;-76
2021/11/28 05:28:06;;;;;;;;;2.00;1.75;;;;;6.17;100.00;99632.97;5015993;28;45334;-76
2021/11/28 05:30:32;;;;;;;;;1.00;1.00;;;;;6.15;100.00;99618.31;4998031;28;47726;-77
2021/11/28 05:32:58;;;;;;;;;1.00;1.00;;;;;6.20;100.00;99632.22;5016897;28;45379;-76
2021/11/28 05:35:24;;;;;;;;;2.00;2.00;;;;;6.19;100.00;99633.94;5020492;28;45486;-76
2021/11/28 05:37:50;;;;;;;;;4.25;1.00;;;;;6.22;100.00;99635.75;5017163;28;45243;-76
2021/11/28 05:40:16;;;;;;;;;0.25;0.25;;;;;6.23;100.00;99644.31;5015847;28;45379;-75
2021/11/28 05:42:46;;;;;;;;;2.00;2.00;;;;;6.21;100.00;99645.97;5016143;28;45333;-75
2021/11/28 05:45:12;;;;;;;;;0.00;0.00;;;;;6.11;100.00;99642.09;5016001;28;45434;-76
2021/11/28 05:47:38;;;;;;;;;1.75;1.50;;;;;6.12;100.00;99641.28;4997461;28;45549;-75
2021/11/28 05:50:04;;;;;;;;;0.00;0.00;;;;;6.13;100.00;99659.34;5014917;28;45913;-75
2021/11/28 05:52:30;;;;;;;;;1.00;1.00;;;;;6.08;100.00;99644.53;5015438;28;45394;-76
2021/11/28 05:54:56;;;;;;;;;0.25;0.25;;;;;6.16;100.00;99666.28;5015457;28;45348;-76
2021/11/28 05:57:22;;;;;;;;;1.00;1.00;;;;;6.16;100.00;99658.59;5015343;28;45576;-75
2021/11/28 05:59:48;;;;;;;;;1.00;0.00;;;;;6.12;100.00;99657.56;5013954;28;45860;-76
2021/11/28 06:02:13;;;;;;;;;0.75;0.75;;;;;6.10;100.00;99659.19;5015479;28;45382;-76
2021/11/28 06:04:39;;;;;;;;;3.00;1.00;;;;;6.12;100.00;99657.56;5015905;28;45372;-76
2021/11/28 06:07:04;;;;;;;;;1.00;1.00;;;;;6.09;100.00;99669.41;4997618;28;45669;-77
2021/11/28 06:09:31;;;;;;;;;1.00;1.00;;;;;6.11;100.00;99678.94;5015266;28;45532;-76
2021/11/28 06:11:56;;;;;;;;;0.00;0.00;;;;;6.00;100.00;99654.47;5015092;28;46053;-76
2021/11/28 06:14:22;;;;;;;;;0.25;0.25;;;;;6.04;100.00;99666.66;5015946;28;45460;-76
2021/11/28 06:16:48;;;;;;;;;1.75;0.25;;;;;6.09;100.00;99672.88;5015878;28;45513;-76
2021/11/28 06:19:13;;;;;;;;;0.00;0.00;;;;;6.14;100.00;99686.78;5017463;28;45960;-76
2021/11/28 06:21:39;;;;;;;;;0.75;0.75;;;;;6.13;100.00;99674.75;5028265;28;45492;-75
2021/11/28 06:24:05;;;;;;;;;0.00;0.00;;;;;6.13;100.00;99685.03;5017756;28;45447;-75
2021/11/28 06:26:31;;;;;;;;;3.00;0.00;;;;;6.12;100.00;99690.13;5014973;28;45430;-76
2021/11/28 06:28:56;;;;;;;;;2.00;0.00;;;;;6.11;100.00;99686.66;5023381;28;46099;-76
2021/11/28 06:31:22;;;;;;;;;0.00;0.00;;;;;6.10;100.00;99699.44;5035023;28;45419;-76
2021/11/28 06:33:48;;;;;;;;;0.50;0.00;;;;;6.10;100.00;99695.16;5020788;28;45404;-76
2021/11/28 06:36:14;;;;;;;;;1.25;1.00;;;;;5.95;100.00;99679.06;5018785;28;45347;-76
2021/11/28 06:38:43;;;;;;;;;2.00;0.50;;;;;6.13;100.00;99702.16;5000900;28;47772;-76
2021/11/28 06:41:08;;;;;;;;;2.00;1.00;;;;;6.13;100.00;99705.59;5016870;28;45863;-75
2021/11/28 06:43:34;;;;;;;;;2.00;1.00;;;;;6.16;100.00;99699.69;5018425;28;45440;-76
2021/11/28 06:46:01;;;;;;;;;1.75;0.25;;;;;6.08;100.00;99681.41;5018490;28;45549;-76
2021/11/28 06:48:27;;;;;;;;;1.75;1.75;;;;;6.15;100.00;99688.56;5019033;28;45551;-76
2021/11/28 06:50:53;;;;;;;;;0.75;0.75;;;;;6.20;100.00;99701.63;5032808;28;45309;-75
2021/11/28 06:53:19;;;;;;;;;0.25;0.25;;;;;6.18;100.00;99706.69;5021254;28;45456;-75
2021/11/28 06:55:44;;;;;;;;;1.00;1.00;;;;;6.17;100.00;99714.31;5001348;28;45310;-76
2021/11/28 06:58:10;;;;;;;;;1.25;0.50;;;;;6.19;100.00;99703.31;5018010;28;45332;-75
2021/11/28 07:00:36;;;;;;;;;3.75;1.25;;;;;6.20;100.00;99719.59;4999676;28;45561;-75
2021/11/28 07:03:02;;;;;;;;;1.25;1.00;;;;;6.18;100.00;99719.53;5022336;28;45527;-75
2021/11/28 07:05:28;;;;;;;;;1.00;0.50;;;;;6.18;100.00;99714.41;5038149;28;45705;-75
2021/11/28 07:07:53;;;;;;;;;1.00;1.00;;;;;6.26;100.00;99743.03;5025639;28;45400;-75
2021/11/28 07:10:19;;;;;;;;;1.25;1.25;;;;;6.28;100.00;99732.81;5016298;28;45416;-75
2021/11/28 07:12:45;;;;;;;;;1.75;1.00;;;;;6.29;100.00;99732.00;5016345;28;45419;-75
2021/11/28 07:15:12;;;;;;;;;1.00;1.00;;;;;6.24;100.00;99726.66;5018051;28;45689;-75
2021/11/28 07:17:38;;;;;;;;;0.00;0.00;;;;;6.23;100.00;99736.84;5017794;28;45395;-76
2021/11/28 07:20:05;;;;;;;;;0.00;0.00;;;;;6.17;100.00;99742.59;4999080;28;45301;-75
2021/11/28 07:22:33;;;;;;;;;0.50;0.50;;;;;6.24;100.00;99743.75;5017215;28;45528;-75
2021/11/28 07:24:59;;;;;;;;;0.25;0.25;;;;;6.24;100.00;99749.78;5017805;28;45483;-76
2021/11/28 07:27:25;;;;;;;;;1.50;1.00;;;;;6.12;100.00;99721.81;5018914;28;45475;-74
2021/11/28 07:29:50;;;;;;;;;1.50;1.50;;;;;6.30;100.00;99750.03;5016994;28;45445;-76
2021/11/28 07:32:16;;;;;;;;;1.75;1.00;;;;;6.34;100.00;99743.34;5018153;28;45328;-76
2021/11/28 07:34:41;;;;;;;;;1.75;1.00;;;;;6.39;100.00;99766.69;5017508;28;45283;-74
2021/11/28 07:37:07;;;;;;;;;1.25;1.25;;;;;6.33;100.00;99765.63;5016986;28;46174;-75
2021/11/28 07:39:33;;;;;;;;;1.25;1.00;;;;;6.36;100.00;99785.44;5018518;28;45455;-75
2021/11/28 07:41:58;;;;;;;;;3.25;1.50;;;;;6.25;100.00;99766.06;5015491;28;46627;-75
2021/11/28 07:44:24;;;;;;;;;1.00;1.00;;;;;6.32;100.00;99773.25;5014230;28;45577;-74
2021/11/28 07:46:50;;;;;;;;;2.50;0.00;;;;;6.35;100.00;99776.84;5024704;28;46084;-75
2021/11/28 07:49:15;;;;;;;;;2.25;2.25;;;;;6.39;100.00;99801.00;5017129;28;45341;-74
2021/11/28 07:51:41;;;;;;;;;2.50;2.50;;;;;6.41;100.00;99789.09;5015276;28;45574;-74
2021/11/28 07:54:07;;;;;;;;;2.75;2.00;;;;;6.42;100.00;99805.38;5016890;28;45637;-75
2021/11/28 07:56:33;;;;;;;;;3.00;2.00;;;;;6.43;100.00;99797.75;5015455;28;45482;-76
2021/11/28 07:59:03;;;;;;;;;1.00;0.75;;;;;6.43;100.00;99796.88;5016273;28;45274;-74
2021/11/28 08:01:31;;;;;;;;;2.50;2.50;;;;;6.45;100.00;99802.97;5015264;28;45292;-74
2021/11/28 08:03:57;;;;;;;;;3.25;2.25;;;;;6.37;100.00;99794.91;5014631;28;45573;-73
2021/11/28 08:06:23;;;;;;;;;3.00;2.00;;;;;6.45;100.00;99808.97;5016132;28;45540;-74
2021/11/28 08:08:49;;;;;;;;;2.00;2.00;;;;;6.44;100.00;99811.50;5016568;28;45355;-74
2021/11/28 08:11:15;;;;;;;;;2.50;2.50;;;;;6.46;100.00;99822.72;5017084;28;45266;-75
2021/11/28 08:13:41;;;;;;;;;3.00;3.00;;;;;6.48;100.00;99819.41;5017014;28;45587;-75
2021/11/28 08:16:06;;;;;;;;;3.25;2.00;;;;;6.42;100.00;99825.97;5016508;28;45641;-75
2021/11/28 08:18:32;;;;;;;;;2.00;2.00;;;;;6.35;100.00;99810.28;5016459;28;45347;-75
2021/11/28 08:20:58;;;;;;;;;2.00;1.00;;;;;6.42;100.00;99826.84;5016367;28;45277;-75
2021/11/28 08:23:25;;;;;;;;;1.00;1.00;;;;;6.45;100.00;99838.97;5016858;28;45264;-74
2021/11/28 08:25:51;;;;;;;;;1.00;1.00;;;;;6.42;100.00;99831.09;5014817;28;47773;-74
2021/11/28 08:28:18;;;;;;;;;2.25;1.50;;;;;6.44;100.00;99838.06;5016971;28;45798;-74
2021/11/28 08:30:43;;;;;;;;;2.25;2.25;;;;;6.47;100.00;99830.50;5017126;28;45391;-76
2021/11/28 08:33:09;;;;;;;;;2.25;2.25;;;;;6.50;100.00;99840.94;5016935;28;45371;-77
2021/11/28 08:35:35;;;;;;;;;6.50;3.00;;;;;6.43;100.00;99828.59;5018233;28;45908;-76
2021/11/28 08:38:02;;;;;;;;;2.25;1.25;;;;;6.47;100.00;99833.06;5041494;28;45299;-77
2021/11/28 08:40:28;;;;;;;;;3.50;3.50;;;;;6.53;100.00;99839.31;5036344;28;45319;-76
2021/11/28 08:42:54;;;;;;;;;6.75;2.50;;;;;6.53;100.00;99837.63;5036107;28;45208;-76
2021/11/28 08:45:20;;;;;;;;;7.75;3.50;;;;;6.48;100.00;99833.94;5035790;28;45302;-77
2021/11/28 08:47:46;;;;;;;;;3.00;3.00;;;;;6.57;100.00;99839.53;5036270;28;45384;-76
2021/11/28 08:50:14;;;;;;;;;3.25;2.75;;;;;6.56;100.00;99837.75;5035553;28;45443;-77
2021/11/28 08:52:43;;;;;;;;;3.00;3.00;;;;;6.59;100.00;99837.00;5018784;28;45522;-74
2021/11/28 08:55:09;;;;;;;;;4.75;3.75;;;;;6.62;100.00;99853.47;5014034;28;45516;-79
2021/11/28 08:57:35;;;;;;;;;4.00;2.50;;;;;6.59;100.00;99844.72;5014661;28;45385;-77
2021/11/28 09:00:04;;;;;;;;;4.75;3.25;;;;;6.63;100.00;99839.78;5037698;28;45434;-84
2021/11/28 09:02:29;;;;;;;;;4.25;1.25;;;;;6.70;100.00;99866.66;5036980;28;45442;-79
2021/11/28 09:04:55;;;;;;;;;1.25;1.00;;;;;6.66;100.00;99854.47;4997739;28;45346;-81
2021/11/28 09:07:20;;;;;;;;;7.25;2.50;;;;;6.70;100.00;99858.06;4997590;28;45341;-84
2021/11/28 09:09:46;;;;;;;;;2.00;2.00;;;;;6.60;100.00;99849.94;5015517;28;45475;-84
2021/11/28 09:12:12;;;;;;;;;3.00;2.00;;;;;6.62;100.00;99857.72;5018441;28;45664;-76
2021/11/28 09:14:38;;;;;;;;;2.50;2.50;;;;;6.66;100.00;99875.03;5015911;28;45252;-87
2021/11/28 09:17:04;;;;;;;;;1.00;1.00;;;;;6.66;100.00;99875.94;4997541;28;45389;-76
2021/11/28 09:21:56;;;;;;;;;5.75;3.00;;;;;6.67;100.00;99881.94;5015962;28;45346;-91
2021/11/28 09:24:37;;;;;;;;;3.00;2.00;;;;;6.68;100.00;99878.56;5016133;28;46335;-84
2021/11/28 09:27:07;;;;;;;;;6.75;6.50;;;;;6.66;100.00;99882.75;5015145;28;45372;-81
2021/11/28 09:29:40;;;;;;;;;4.00;2.00;;;;;6.58;100.00;99873.81;5014576;28;45865;-80
2021/11/28 09:32:07;;;;;;;;;3.00;3.00;;;;;6.64;100.00;99894.69;5019432;28;45403;-78
2021/11/28 09:34:33;;;;;;;;;2.00;2.00;;;;;6.64;100.00;99915.28;5015005;28;46107;-80
2021/11/28 09:36:59;;;;;;;;;2.50;2.00;;;;;6.64;100.00;99905.00;5016814;28;45513;-76
2021/11/28 09:39:25;;;;;;;;;3.50;1.25;;;;;6.61;100.00;99908.28;5014845;28;45318;-76
2021/11/28 09:41:59;;;;;;;;;5.75;1.75;;;;;6.60;100.00;99901.38;5014488;28;45258;-77
2021/11/28 09:44:28;;;;;;;;;3.50;3.25;;;;;6.27;100.00;99860.44;5032006;28;45291;-77
2021/11/28 09:46:55;;;;;;;;;6.25;2.00;;;;;6.59;100.00;99909.88;5029796;28;45456;-76
2021/11/28 09:49:26;;;;;;;;;1.25;1.00;;;;;6.54;100.00;99900.19;5009752;28;45368;-77
2021/11/28 09:51:53;;;;;;;;;4.00;3.00;;;;;6.60;100.00;99914.22;4994855;28;46989;-76
2021/11/28 09:54:20;;;;;;;;;6.50;4.25;;;;;6.60;100.00;99905.66;5013088;28;46313;-78
2021/11/28 09:56:46;;;;;;;;;4.75;3.25;;;;;6.62;100.00;99909.16;5012947;28;45868;-77
2021/11/28 09:59:13;;;;;;;;;5.50;3.25;;;;;6.47;100.00;99893.91;5013679;28;45339;-79
2021/11/28 10:01:40;;;;;;;;;5.50;4.25;;;;;6.59;100.00;99935.59;5014859;28;45560;-78
2021/11/28 10:04:06;;;;;;;;;4.25;3.75;;;;;6.54;100.00;99924.25;5014421;28;46341;-78
2021/11/28 10:06:32;;;;;;;;;3.00;3.00;;;;;6.61;100.00;99938.28;5014699;28;45925;-80
2021/11/28 10:09:00;;;;;;;;;5.00;4.25;;;;;6.64;100.00;99948.72;5021463;28;45260;-79
2021/11/28 10:11:43;;;;;;;;;5.25;4.00;;;;;6.63;100.00;99949.50;5020928;28;46735;-78
2021/11/28 10:14:14;;;;;;;;;3.75;3.75;;;;;6.62;100.00;99947.75;5039790;28;46471;-85
2021/11/28 10:16:40;;;;;;;;;6.00;3.75;;;;;6.57;100.00;99937.25;5024869;28;45423;-82
2021/11/28 10:19:08;;;;;;;;;6.00;3.25;;;;;6.50;100.00;99943.78;5016385;28;45471;-80
2021/11/28 10:21:34;;;;;;;;;7.25;4.00;;;;;6.53;100.00;99947.31;5017344;28;45462;-80
2021/11/28 10:24:17;;;;;;;;;5.75;3.00;;;;;6.52;100.00;99937.84;5016712;28;45503;-81
2021/11/28 10:27:09;;;;;;;;;7.25;4.50;;;;;6.55;100.00;99941.44;5001404;28;45794;-83
2021/11/28 10:29:41;;;;;;;;;4.00;3.50;;;;;6.50;100.00;99948.94;5018322;28;45382;-82
2021/11/28 10:32:09;;;;;;;;;2.25;2.25;;;;;6.45;100.00;99928.97;5018680;28;45270;-82
2021/11/28 10:34:39;;;;;;;;;2.00;2.00;;;;;6.45;100.00;99921.25;5018239;28;45375;-82
2021/11/28 10:37:10;;;;;;;;;3.00;1.75;;;;;6.50;100.00;99932.59;5000330;28;45619;-81
2021/11/28 10:39:57;;;;;;;;;4.25;4.25;;;;;6.35;100.00;99910.53;5018634;28;45431;-80
2021/11/28 10:42:26;;;;;;;;;7.75;5.50;;;;;6.44;100.00;99930.63;5018842;28;45255;-82
2021/11/28 10:44:59;;;;;;;;;7.50;7.00;;;;;6.44;100.00;99937.47;5018129;28;45371;-81
2021/11/28 10:47:41;;;;;;;;;6.50;5.00;;;;;6.46;100.00;99929.03;5018844;28;45389;-82
2021/11/28 10:50:12;;;;;;;;;7.00;3.00;;;;;6.54;100.00;99925.91;5022794;28;45465;-80
2021/11/28 10:52:40;;;;;;;;;6.25;3.25;;;;;6.55;100.00;99926.00;5039927;28;45394;-83
2021/11/28 10:55:16;;;;;;;;;4.25;2.00;;;;;6.59;100.00;99930.47;5035955;28;45245;-81
2021/11/28 10:57:42;;;;;;;;;5.50;4.00;;;;;6.62;100.00;99930.63;5020737;28;45219;-80
2021/11/28 11:00:10;;;;;;;;;4.75;2.50;;;;;6.65;100.00;99925.63;5018568;28;45333;-80
2021/11/28 11:02:38;;;;;;;;;7.00;5.25;;;;;6.66;100.00;99911.06;5000256;28;45500;-80
2021/11/28 11:05:09;;;;;;;;;7.00;4.25;;;;;6.74;100.00;99912.31;5017578;28;45341;-80
2021/11/28 11:07:49;;;;;;;;;7.00;4.00;;;;;6.77;100.00;99917.56;5017819;28;45223;-81
2021/11/28 11:10:26;;;;;;;;;7.75;7.00;;;;;6.86;100.00;99913.69;5000336;28;45508;-81
2021/11/28 11:12:53;;;;;;;;;2.00;2.00;;;;;6.93;100.00;99919.16;5018042;28;45436;-84
2021/11/28 11:15:38;;;;;;;;;6.00;3.25;;;;;6.91;100.00;99920.75;5017612;28;46103;-83
2021/11/28 11:18:06;;;;;;;;;3.00;3.00;;;;;6.82;100.00;99895.53;5017534;28;45316;-85
2021/11/28 11:20:35;;;;;;;;;3.00;3.00;;;;;6.72;100.00;99877.00;5018050;28;45381;-83
2021/11/28 11:23:01;;;;;;;;;6.75;2.75;;;;;6.92;100.00;99919.94;5016811;28;45292;-82
2021/11/28 11:25:36;;;;;;;;;3.00;3.00;;;;;6.85;100.00;99919.63;5017950;28;46182;-81
2021/11/28 11:28:13;;;;;;;;;2.00;2.00;;;;;6.79;100.00;99900.53;5017167;28;45528;-81
2021/11/28 11:30:40;;;;;;;;;1.50;1.50;;;;;6.74;100.00;99904.59;5022210;28;45425;-81
2021/11/28 11:33:08;;;;;;;;;3.50;3.25;;;;;6.76;100.00;99914.94;5021115;28;45476;-80
2021/11/28 11:35:43;;;;;;;;;2.75;2.75;;;;;6.75;100.00;99928.63;5000957;28;46974;-83
2021/11/28 11:38:15;;;;;;;;;3.50;3.00;;;;;6.68;100.00;99924.88;5011346;28;45531;-77
2021/11/28 11:40:41;;;;;;;;;4.75;2.25;;;;;6.73;100.00;99925.97;5014383;28;45518;-83
2021/11/28 11:43:08;;;;;;;;;3.50;3.00;;;;;6.69;100.00;99918.06;5016601;28;45304;-79
2021/11/28 11:45:36;;;;;;;;;7.00;3.00;;;;;6.82;100.00;99935.78;5015479;28;46153;-81